Domov               UVHVVR             MKGP            O straneh              
ZDRAVSTVENO VARSTVO RASTLIN
  MREŽA AGROMET. POSTAJ
 ► PROGNOSTIČNA OBVESTILA
AGROMETEOROLOŠKI PODATKI -
ARSO
OBVLADOVANJE TVEGANJ ZARADI
NEUGODNIH VREMENSKIH RAZMER
  ► NARAVNE NESREČE
  ► SUŠA/MOČA
  ► NAMAKANJE
  ► ŽLED (gozdarstvo)
KARTOGRAFSKI PRIKAZI
SPLETNE POVEZAVE
PROJEKTI IN PUBLIKACIJE

AGROMETEOROLOŠKA MREŽA: VREMENSKE POSTAJE IN FENOLOŠKA OPAZOVANJA

Pregled podatkov za lokacijo Slom, meteorološka postaja 42786

Pregled senzorjev na lokaciji

ID Ime Zadnja
vrednost
Datum in čas
zadnje
spremembe
(Lokalni čas)
Tip
senzorja
2128 Omočenost lista (U) 0 U 15.12.2019 05:00 A730WET
4948 Padavine (mm) 0 mm 15.12.2019 05:00 Generic 0.2 mm
2127 Relativna vlaga 2 m (% RH) 100 % RH 15.12.2019 05:00 50YA
2126 Temperatura 2 m (°C) -1.97 °C 15.12.2019 05:00 50YA

Pregled podatkov zadnjih 24 ur

Zap.
št.
Datum in čas
(Centralno
evropski čas)
Slom
Omočenost
lista
Padavine Relativna
vlaga
2
m
Temperatura
2
m
1 15.12.2019 05:30
2 15.12.2019 05:00 0 0 100 -2
3 15.12.2019 04:30 0 0 100 -1.9
4 15.12.2019 04:00 0 0 100 -1.7
5 15.12.2019 03:30 0 0 100 -1.6
6 15.12.2019 03:00 0 0 100 -1.6
7 15.12.2019 02:30 0 0 100 -1.6
8 15.12.2019 02:00 0 0 100 -1.7
9 15.12.2019 01:30 0 0 100 -1.8
10 15.12.2019 01:00 0 0 100 -2.1
11 15.12.2019 00:30 0 0 100 -2.4
12 15.12.2019 00:00 0 0 100 -2.3
13 14.12.2019 23:30 0 0 100 -2.2
14 14.12.2019 23:00 0 0 100 -2.8
15 14.12.2019 22:30 0 0 100 -2.7
16 14.12.2019 22:00 0 0 100 -2.3
17 14.12.2019 21:30 0 0 100 -2.1
18 14.12.2019 21:00 0 0 100 -1.2
19 14.12.2019 20:30 0 0.2 100 -1.7
20 14.12.2019 20:00 0 0 100 -2.3
21 14.12.2019 19:30 0 0 100 -2.1
22 14.12.2019 19:00 0 0 100 -1.7
23 14.12.2019 18:30 0 0 100 -1.5
24 14.12.2019 18:00 0 0 99.9 -1.2
25 14.12.2019 17:30 1 0 99.1 -0.9
26 14.12.2019 17:00 3 0 98.4 0.4
27 14.12.2019 16:30 1 0 96.1 0.6
28 14.12.2019 16:00 0 0.2 91.4 2.5
29 14.12.2019 15:30 0 0.8 87.8 4.5
30 14.12.2019 15:00 0 1 85.1 5.4
31 14.12.2019 14:30 0 1.6 85.3 5.5
32 14.12.2019 14:00 0 2 87.8 4.6
33 14.12.2019 13:30 0 2 86.2 4.8
34 14.12.2019 13:00 0 2.2 86.1 4.4
35 14.12.2019 12:30 0 2 86.7 4.2
36 14.12.2019 12:00 0 0.4 89.2 3.8
37 14.12.2019 11:30 0 0 95.7 2.3
38 14.12.2019 11:00 0 0 95.6 1.9
39 14.12.2019 10:30 0 0 99.3 1.9
40 14.12.2019 10:00 9 0 100 1.7
41 14.12.2019 09:30 10 0 100 0.7
42 14.12.2019 09:00 10 0 100 -0.2
43 14.12.2019 08:30 10 0 100 -0.5
44 14.12.2019 08:00 10 0 100 -0.2
45 14.12.2019 07:30 10 0 100 0
46 14.12.2019 07:00 10 0 100 0.1
47 14.12.2019 06:30 10 0 100 0.1
48 14.12.2019 06:00 10 0 100 0.1
© 2011 Ministrstvo za kmetijstvo, gozdarstvo in prehrano. Vse pravice pridržane.